Time;durP1;ratioP1;P1;durP2;ratioP2;P2;SDS_P1;SDS_P2;PMS_P1;PMS_P2;Temp;Humidity;BMP_temperature;BMP_pressure;BME280_temperature;BME280_humidity;BME280_pressure;Samples;Min_cycle;Max_cycle;Signal;HPM_P1;HPM_P2
2022/07/15 00:01:28;;;;;;;5.18;2.00;;;;;;;24.90;46.79;99771.81;5074222;28;20037;-67
2022/07/15 00:03:56;;;;;;;4.65;1.85;;;;;;;24.91;46.96;99806.25;5073923;28;20138;-67
2022/07/15 00:06:25;;;;;;;6.15;2.10;;;;;;;24.97;46.82;99817.22;5056343;28;20139;-66
2022/07/15 00:08:54;;;;;;;7.03;2.13;;;;;;;24.85;47.09;99826.97;5056064;28;20048;-67
2022/07/15 00:11:23;;;;;;;5.43;1.80;;;;;;;24.82;47.17;99816.47;5074577;28;20049;-66
2022/07/15 00:13:51;;;;;;;3.65;1.67;;;;;;;24.88;46.88;99802.03;5073890;28;20041;-67
2022/07/15 00:16:19;;;;;;;6.60;1.90;;;;;;;24.98;46.81;99818.91;5073697;28;20489;-67
2022/07/15 00:18:49;;;;;;;3.90;1.70;;;;;;;25.05;46.75;99830.75;5074189;28;20041;-67
2022/07/15 00:21:18;;;;;;;4.63;1.80;;;;;;;25.00;46.98;99814.13;5074179;28;20085;-67
2022/07/15 00:23:46;;;;;;;3.72;2.05;;;;;;;24.98;47.05;99798.97;5073559;28;20047;-68
2022/07/15 00:26:14;;;;;;;7.13;1.95;;;;;;;24.98;46.98;99799.81;5074114;28;20044;-67
2022/07/15 00:28:43;;;;;;;5.18;1.75;;;;;;;24.98;47.15;99779.88;5073716;28;20044;-67
2022/07/15 00:31:11;;;;;;;11.95;2.15;;;;;;;25.03;47.23;99777.44;5073681;28;20048;-67
2022/07/15 00:33:40;;;;;;;9.60;2.25;;;;;;;25.14;46.89;99778.78;5073827;28;20044;-67
2022/07/15 00:36:10;;;;;;;3.80;1.92;;;;;;;25.15;46.88;99775.00;5055443;28;20048;-67
2022/07/15 00:38:38;;;;;;;3.83;1.92;;;;;;;25.31;46.72;99769.25;5073685;28;20041;-66
2022/07/15 00:41:06;;;;;;;4.25;2.00;;;;;;;25.30;46.41;99764.84;5073043;28;20135;-67
2022/07/15 00:43:35;;;;;;;4.15;2.00;;;;;;;25.22;46.63;99748.63;5073422;28;20648;-66
2022/07/15 00:46:03;;;;;;;4.78;2.00;;;;;;;25.25;46.68;99742.75;5073377;28;20439;-67
2022/07/15 00:48:32;;;;;;;4.65;2.05;;;;;;;25.20;46.86;99729.72;5073392;28;20490;-67
2022/07/15 00:51:00;;;;;;;5.28;1.88;;;;;;;25.20;46.82;99739.78;5073082;28;20529;-66
2022/07/15 00:53:33;;;;;;;7.93;1.98;;;;;;;25.11;47.34;99741.81;5073500;28;20537;-67
2022/07/15 00:56:03;;;;;;;5.80;2.03;;;;;;;25.08;47.36;99726.66;5073111;28;20123;-67
2022/07/15 00:58:34;;;;;;;3.30;1.80;;;;;;;25.05;47.41;99735.25;5073434;28;20074;-66
2022/07/15 01:01:04;;;;;;;2.95;1.80;;;;;;;25.11;46.99;99744.56;5073190;28;20044;-67
2022/07/15 01:03:33;;;;;;;4.40;1.98;;;;;;;25.11;47.13;99742.66;5073513;28;20036;-66
2022/07/15 01:06:02;;;;;;;4.32;2.17;;;;;;;25.05;47.33;99746.19;5072949;28;20041;-66
2022/07/15 01:08:32;;;;;;;5.95;2.10;;;;;;;24.89;47.83;99759.22;5073401;28;20060;-66
2022/07/15 01:11:00;;;;;;;4.15;2.15;;;;;;;24.75;48.39;99769.19;5072502;28;20459;-67
2022/07/15 01:13:28;;;;;;;3.47;1.95;;;;;;;24.80;48.45;99777.59;5073198;28;20045;-66
2022/07/15 01:15:57;;;;;;;5.75;1.88;;;;;;;24.73;48.73;99788.47;5054837;28;20044;-67
2022/07/15 01:18:25;;;;;;;3.63;1.88;;;;;;;24.63;49.07;99784.38;5072989;28;20127;-67
2022/07/15 01:20:55;;;;;;;5.10;2.10;;;;;;;24.62;49.55;99790.88;5072748;28;20098;-67
2022/07/15 01:23:24;;;;;;;4.63;2.20;;;;;;;24.50;49.53;99794.09;5055421;28;20493;-67
2022/07/15 01:25:53;;;;;;;3.70;2.00;;;;;;;24.44;49.88;99804.94;5072851;28;20136;-67
2022/07/15 01:28:21;;;;;;;7.35;2.25;;;;;;;24.41;50.09;99805.31;5073034;28;20090;-67
2022/07/15 01:30:50;;;;;;;3.55;1.95;;;;;;;24.39;50.52;99812.84;5072763;28;20090;-67
2022/07/15 01:33:18;;;;;;;4.50;2.00;;;;;;;24.41;50.49;99817.06;5072780;28;20036;-67
2022/07/15 01:35:46;;;;;;;5.60;2.08;;;;;;;24.45;50.75;99815.66;5073026;28;20477;-66
2022/07/15 01:38:16;;;;;;;6.57;2.15;;;;;;;24.67;50.16;99824.69;5072966;28;20041;-66
2022/07/15 01:40:44;;;;;;;5.35;2.50;;;;;;;24.94;50.34;99812.16;5072736;28;20048;-66
2022/07/15 01:43:12;;;;;;;5.00;2.72;;;;;;;25.08;50.51;99814.00;5072838;28;20132;-67
2022/07/15 01:45:43;;;;;;;8.15;2.40;;;;;;;25.04;50.64;99820.91;5072639;28;20047;-66
2022/07/15 01:49:21;;;;;;;5.55;2.33;;;;;;;25.14;50.88;99811.53;5072700;28;20048;-66
2022/07/15 01:51:01;;;;;;;5.90;2.40;;;;;;;25.24;50.92;99810.16;5072418;28;20036;-66
2022/07/15 01:53:30;;;;;;;4.93;2.40;;;;;;;25.21;51.12;99812.44;5072856;28;20064;-66
2022/07/15 01:55:59;;;;;;;6.20;2.35;;;;;;;25.11;51.38;99816.34;5072428;28;20037;-67
2022/07/15 01:58:27;;;;;;;6.13;2.50;;;;;;;24.98;51.55;99813.44;5072509;28;20041;-66
2022/07/15 02:00:56;;;;;;;7.13;2.70;;;;;;;25.07;51.67;99803.28;5072402;28;20064;-67
2022/07/15 02:03:24;;;;;;;5.10;2.40;;;;;;;24.98;51.91;99799.81;5072664;28;20136;-66
2022/07/15 02:05:52;;;;;;;7.35;2.53;;;;;;;24.99;52.05;99798.75;5072505;28;20460;-67
2022/07/15 02:08:21;;;;;;;5.63;2.53;;;;;;;24.84;52.49;99807.03;5072657;28;20044;-66
2022/07/15 02:10:50;;;;;;;14.75;2.92;;;;;;;24.86;52.46;99812.28;5072969;28;20068;-67
2022/07/15 02:13:19;;;;;;;4.38;2.35;;;;;;;24.80;53.03;99826.69;5072736;28;20098;-66
2022/07/15 02:15:47;;;;;;;9.38;2.88;;;;;;;24.71;52.95;99827.88;5072485;28;20048;-66
2022/07/15 02:18:16;;;;;;;5.10;2.83;;;;;;;24.52;53.24;99813.84;5072149;28;20494;-66
2022/07/15 02:20:44;;;;;;;5.50;2.20;;;;;;;24.63;52.91;99795.28;5072558;28;20091;-66
2022/07/15 02:23:13;;;;;;;3.60;2.20;;;;;;;24.67;52.42;99804.75;5074318;28;20052;-67
2022/07/15 02:25:41;;;;;;;4.60;2.20;;;;;;;24.68;52.01;99795.53;5076294;28;20055;-66
2022/07/15 02:28:11;;;;;;;6.43;2.30;;;;;;;24.58;51.51;99806.75;5075863;28;20036;-66
2022/07/15 02:30:42;;;;;;;5.35;2.17;;;;;;;24.57;50.53;99806.97;5058483;28;20076;-67
2022/07/15 02:33:13;;;;;;;5.38;2.00;;;;;;;24.54;50.06;99830.84;5075728;28;20040;-67
2022/07/15 02:35:43;;;;;;;3.25;1.90;;;;;;;24.54;50.02;99849.09;5075669;28;20139;-66
2022/07/15 02:38:11;;;;;;;3.20;1.67;;;;;;;24.73;48.71;99874.91;5075813;28;20064;-66
2022/07/15 02:40:40;;;;;;;3.47;1.83;;;;;;;24.83;47.98;99891.78;5075699;28;20105;-66
2022/07/15 02:43:13;;;;;;;2.67;1.50;;;;;;;24.77;47.89;99889.81;5075615;28;20044;-66
2022/07/15 02:45:42;;;;;;;4.60;1.70;;;;;;;24.87;47.33;99897.69;5075799;28;20368;-66
2022/07/15 02:48:11;;;;;;;2.72;1.52;;;;;;;24.89;46.83;99907.38;5075596;28;20041;-67
2022/07/15 02:50:39;;;;;;;2.85;1.40;;;;;;;24.84;47.01;99905.22;5075716;28;20068;-66
2022/07/15 02:53:08;;;;;;;3.75;1.33;;;;;;;24.85;46.81;99903.34;5075532;28;20044;-66
2022/07/15 02:55:36;;;;;;;3.08;1.40;;;;;;;24.90;46.55;99892.72;5075399;28;20489;-66
2022/07/15 02:58:05;;;;;;;3.28;1.52;;;;;;;24.94;46.09;99891.28;5075174;28;20049;-66
2022/07/15 03:00:35;;;;;;;3.45;1.50;;;;;;;24.87;46.37;99898.53;5057484;28;20131;-66
2022/07/15 03:03:03;;;;;;;3.33;1.38;;;;;;;24.87;46.25;99908.59;5075396;28;20072;-66
2022/07/15 03:05:32;;;;;;;2.35;1.38;;;;;;;24.84;46.08;99894.31;5075508;28;20383;-66
2022/07/15 03:08:01;;;;;;;4.05;1.58;;;;;;;24.87;46.26;99901.25;5075346;28;20482;-66
2022/07/15 03:10:29;;;;;;;3.63;1.50;;;;;;;24.86;45.92;99896.84;5075259;28;20040;-66
2022/07/15 03:12:57;;;;;;;2.28;1.40;;;;;;;24.92;45.41;99885.19;5057152;28;20048;-66
2022/07/15 03:15:26;;;;;;;2.30;1.30;;;;;;;24.86;45.59;99880.50;5075076;28;20387;-66
2022/07/15 03:17:56;;;;;;;4.97;1.60;;;;;;;24.79;45.64;99879.56;5075432;28;20370;-66
2022/07/15 03:20:25;;;;;;;2.33;1.20;;;;;;;24.84;45.04;99879.84;5075351;28;20119;-67
2022/07/15 03:22:53;;;;;;;2.25;1.40;;;;;;;24.85;44.99;99876.06;5075148;28;20466;-66
2022/07/15 03:25:22;;;;;;;2.58;1.25;;;;;;;24.87;44.33;99884.91;5075060;28;20048;-66
2022/07/15 03:27:50;;;;;;;2.25;1.30;;;;;;;24.93;44.05;99888.75;5074904;28;20091;-66
2022/07/15 03:30:20;;;;;;;2.72;1.55;;;;;;;24.91;43.95;99899.84;5074835;28;20040;-66
2022/07/15 03:32:49;;;;;;;3.35;1.33;;;;;;;24.91;44.00;99896.28;5074787;28;20047;-66
2022/07/15 03:35:19;;;;;;;2.08;1.20;;;;;;;24.89;43.65;99904.63;5074521;28;20464;-67
2022/07/15 03:37:47;;;;;;;1.52;1.20;;;;;;;24.88;43.65;99900.22;5056991;28;20051;-68
2022/07/15 03:40:15;;;;;;;3.15;1.30;;;;;;;24.86;43.89;99891.41;5074338;28;20049;-67
2022/07/15 03:42:43;;;;;;;2.13;1.20;;;;;;;24.82;43.86;99890.09;5074860;28;20044;-66
2022/07/15 03:45:12;;;;;;;1.92;1.02;;;;;;;24.83;43.83;99881.72;5074505;28;20045;-67
2022/07/15 03:47:40;;;;;;;3.92;1.50;;;;;;;24.87;43.63;99873.16;5074570;28;20063;-67
2022/07/15 03:50:09;;;;;;;3.15;1.08;;;;;;;24.87;43.32;99876.72;5074500;28;20393;-67
2022/07/15 03:52:41;;;;;;;2.38;0.95;;;;;;;24.78;43.59;99883.34;5074488;28;20481;-67
2022/07/15 03:55:11;;;;;;;3.92;1.10;;;;;;;24.74;43.49;99873.84;5074349;28;20094;-66
2022/07/15 03:57:40;;;;;;;1.83;1.20;;;;;;;24.81;43.38;99893.88;5074305;28;20092;-66
2022/07/15 04:00:09;;;;;;;2.72;1.35;;;;;;;24.72;44.00;99892.31;5074143;28;20040;-67
2022/07/15 04:02:38;;;;;;;2.35;1.27;;;;;;;24.71;43.97;99901.53;5074709;28;20041;-66
2022/07/15 04:05:15;;;;;;;2.65;1.25;;;;;;;24.59;44.93;99927.56;5074007;28;20382;-67
2022/07/15 04:07:45;;;;;;;4.93;1.40;;;;;;;24.51;45.83;99920.34;5074336;28;20394;-66
2022/07/15 04:10:13;;;;;;;2.15;1.10;;;;;;;24.43;46.03;99924.03;5073958;28;20486;-67
2022/07/15 04:12:42;;;;;;;3.13;1.38;;;;;;;24.32;46.99;99919.06;5074172;28;20048;-66
2022/07/15 04:15:14;;;;;;;3.35;1.50;;;;;;;24.34;46.56;99924.34;5074305;28;20040;-67
2022/07/15 04:17:42;;;;;;;2.80;1.55;;;;;;;24.33;46.54;99911.75;5055870;28;20135;-67
2022/07/15 04:20:12;;;;;;;5.72;1.33;;;;;;;24.37;46.42;99913.03;5073798;28;20048;-67
2022/07/15 04:22:41;;;;;;;2.40;1.20;;;;;;;24.35;46.71;99915.13;5055970;28;20076;-66
2022/07/15 04:25:12;;;;;;;2.70;1.33;;;;;;;24.34;47.24;99919.72;5073646;28;20461;-66
2022/07/15 04:27:41;;;;;;;5.57;1.60;;;;;;;24.37;47.16;99915.75;5056039;28;20083;-67
2022/07/15 04:30:10;;;;;;;3.35;1.52;;;;;;;24.40;46.81;99918.94;5073879;28;20040;-68
2022/07/15 04:32:38;;;;;;;3.40;1.45;;;;;;;24.49;46.67;99926.00;5055495;28;20076;-68
2022/07/15 04:35:07;;;;;;;2.03;1.40;;;;;;;24.42;47.15;99938.72;5073290;28;20044;-68
2022/07/15 04:37:36;;;;;;;2.95;1.55;;;;;;;24.28;47.62;99931.34;5073556;28;20050;-67
2022/07/15 04:40:06;;;;;;;2.00;1.20;;;;;;;24.27;47.68;99935.94;5073278;28;20040;-68
2022/07/15 04:42:36;;;;;;;2.03;1.30;;;;;;;24.09;47.88;99938.19;5073481;28;20111;-67
2022/07/15 04:45:05;;;;;;;2.20;1.38;;;;;;;23.87;48.86;99947.28;5072398;28;20040;-67
2022/07/15 04:47:34;;;;;;;3.53;1.40;;;;;;;23.84;49.53;99959.41;5073293;28;20040;-67
2022/07/15 04:52:49;;;;;;;5.53;1.55;;;;;;;23.53;51.49;99964.91;5073575;28;20098;-67
2022/07/15 04:55:17;;;;;;;4.50;1.58;;;;;;;23.37;53.58;99979.50;5072967;28;20120;-67
2022/07/15 04:57:47;;;;;;;5.40;1.73;;;;;;;23.01;58.43;99986.53;5073451;28;20143;-67
2022/07/15 05:00:16;;;;;;;2.78;1.50;;;;;;;22.79;59.60;99994.44;5073204;28;20084;-67
2022/07/15 05:02:45;;;;;;;3.55;1.63;;;;;;;22.50;61.75;99995.09;5055248;28;20078;-67
2022/07/15 05:05:13;;;;;;;3.65;1.77;;;;;;;22.42;63.46;99986.94;5072771;28;20090;-68
2022/07/15 05:07:41;;;;;;;3.03;1.60;;;;;;;22.38;63.27;99992.91;5073017;28;20076;-68
2022/07/15 05:10:10;;;;;;;4.78;1.75;;;;;;;22.10;65.30;99987.03;5072844;28;20042;-67
2022/07/15 05:12:39;;;;;;;3.55;1.90;;;;;;;21.88;66.50;99989.41;5054964;28;20048;-67
2022/07/15 05:15:09;;;;;;;4.07;1.77;;;;;;;21.82;68.39;99983.84;5072937;28;20068;-68
2022/07/15 05:17:41;;;;;;;5.47;2.10;;;;;;;21.57;70.75;99989.25;5055221;28;20056;-68
2022/07/15 05:20:10;;;;;;;5.68;1.73;;;;;;;21.60;70.87;99975.34;5072729;28;20111;-67
2022/07/15 05:22:38;;;;;;;8.82;2.00;;;;;;;21.66;70.56;99980.09;5055274;28;20136;-67
2022/07/15 05:25:07;;;;;;;5.32;2.20;;;;;;;21.81;69.40;99982.09;5054698;28;20048;-69
2022/07/15 05:27:35;;;;;;;5.82;2.35;;;;;;;21.57;71.09;99964.81;5072844;28;20045;-68
2022/07/15 05:30:05;;;;;;;4.22;2.20;;;;;;;21.57;72.51;99969.41;5072756;28;20045;-70
2022/07/15 05:32:34;;;;;;;5.38;2.10;;;;;;;21.63;70.68;99991.31;5072931;28;20437;-68
2022/07/15 05:35:03;;;;;;;2.72;1.95;;;;;;;21.52;71.45;99979.91;5072629;28;20064;-68
2022/07/15 05:37:32;;;;;;;5.65;2.20;;;;;;;21.40;72.77;99996.53;5073044;28;20120;-68
2022/07/15 05:40:00;;;;;;;3.70;2.00;;;;;;;21.19;74.64;100003.41;5071422;28;20049;-70
2022/07/15 05:42:28;;;;;;;7.00;2.20;;;;;;;21.08;76.29;99999.16;5072558;28;20041;-68
2022/07/15 05:44:57;;;;;;;6.10;2.08;;;;;;;20.99;78.31;100008.28;5072617;28;20119;-68
2022/07/15 05:47:26;;;;;;;5.72;2.20;;;;;;;20.90;80.43;100012.84;5072344;28;20127;-68
2022/07/15 05:49:55;;;;;;;3.30;1.90;;;;;;;20.83;80.05;100009.06;5072910;28;20064;-68
2022/07/15 05:52:24;;;;;;;3.85;2.00;;;;;;;20.71;82.41;100015.81;5072419;28;20157;-68
2022/07/15 05:54:52;;;;;;;7.18;2.40;;;;;;;20.64;84.25;100006.63;5072752;28;20075;-68
2022/07/15 05:57:21;;;;;;;3.80;2.10;;;;;;;20.62;85.91;99995.97;5074507;28;20041;-68
2022/07/15 05:59:49;;;;;;;6.88;2.25;;;;;;;20.62;87.71;100011.38;5076430;28;20051;-68
2022/07/15 06:02:18;;;;;;;6.07;2.33;;;;;;;20.57;88.44;100020.84;5076422;28;20078;-68
2022/07/15 06:04:47;;;;;;;5.15;2.25;;;;;;;20.58;89.01;100033.38;5075368;28;20049;-68
2022/07/15 06:07:16;;;;;;;5.30;1.92;;;;;;;20.58;89.29;100049.63;5076364;28;20091;-68
2022/07/15 06:09:46;;;;;;;6.30;2.38;;;;;;;20.32;93.73;100065.00;5076414;28;20489;-68
2022/07/15 06:12:14;;;;;;;3.92;2.00;;;;;;;20.08;97.70;100076.53;5075867;28;20098;-68
2022/07/15 06:14:42;;;;;;;5.35;2.50;;;;;;;20.01;100.00;100089.00;5076439;28;20481;-67
2022/07/15 06:17:11;;;;;;;4.20;2.08;;;;;;;20.05;99.55;100094.94;5075982;28;20052;-68
2022/07/15 06:19:40;;;;;;;4.40;2.28;;;;;;;20.15;100.00;100084.88;5076353;28;20492;-68
2022/07/15 06:22:08;;;;;;;5.22;2.45;;;;;;;20.12;100.00;100080.63;5075462;28;20486;-68
2022/07/15 06:24:38;;;;;;;4.70;2.50;;;;;;;20.32;100.00;100091.25;5076025;28;20045;-68
2022/07/15 06:27:06;;;;;;;5.78;2.63;;;;;;;20.28;100.00;100079.91;5057826;28;20056;-79
2022/07/15 06:29:35;;;;;;;5.57;2.63;;;;;;;20.30;99.89;100081.44;5076125;28;20041;-68
2022/07/15 06:32:03;;;;;;;4.82;2.45;;;;;;;20.41;97.87;100083.03;5058074;28;20077;-68
2022/07/15 06:34:32;;;;;;;5.10;2.50;;;;;;;20.62;96.58;100098.06;5075968;28;20040;-68
2022/07/15 06:37:00;;;;;;;5.93;2.30;;;;;;;20.53;97.07;100103.44;5075907;28;20098;-68
2022/07/15 06:39:28;;;;;;;6.43;2.75;;;;;;;20.02;100.00;100096.09;5057513;28;20063;-68
2022/07/15 06:41:58;;;;;;;3.83;2.05;;;;;;;20.11;100.00;100068.09;5076039;28;20450;-68
2022/07/15 06:44:27;;;;;;;3.70;2.47;;;;;;;19.92;100.00;100061.00;5075517;28;20431;-68
2022/07/15 06:46:55;;;;;;;4.35;2.60;;;;;;;20.00;100.00;100066.50;5075828;28;20040;-68
2022/07/15 06:49:27;;;;;;;4.47;2.42;;;;;;;20.23;100.00;100071.38;5075473;28;20056;-68
2022/07/15 06:51:56;;;;;;;8.30;2.97;;;;;;;20.37;100.00;100094.34;5075601;28;20044;-68
2022/07/15 06:54:24;;;;;;;6.10;2.53;;;;;;;20.36;100.00;100115.13;5075552;28;20067;-68
2022/07/15 06:56:52;;;;;;;4.70;2.30;;;;;;;20.33;100.00;100120.03;5075770;28;20090;-68
2022/07/15 06:59:22;;;;;;;5.00;2.70;;;;;;;20.50;100.00;100105.63;5075441;28;20040;-68
2022/07/15 07:01:51;;;;;;;4.15;2.88;;;;;;;20.46;100.00;100105.13;5075596;28;20041;-68
2022/07/15 07:04:20;;;;;;;4.00;2.70;;;;;;;20.61;100.00;100120.78;5075074;28;20045;-68
2022/07/15 07:06:48;;;;;;;5.40;2.88;;;;;;;20.65;100.00;100119.44;5057280;28;20048;-68
2022/07/15 07:09:16;;;;;;;5.43;2.60;;;;;;;20.52;100.00;100147.81;5074320;28;20045;-68
2022/07/15 07:11:45;;;;;;;4.95;2.60;;;;;;;20.38;100.00;100170.03;5075345;28;20052;-68
2022/07/15 07:14:13;;;;;;;4.70;2.72;;;;;;;20.38;100.00;100178.16;5056949;28;20076;-68
2022/07/15 07:16:43;;;;;;;5.43;2.30;;;;;;;20.28;100.00;100171.97;5057073;28;20095;-68
2022/07/15 07:19:12;;;;;;;4.82;2.60;;;;;;;20.32;100.00;100186.91;5074922;28;20048;-68
2022/07/15 07:21:41;;;;;;;5.53;2.60;;;;;;;20.37;100.00;100198.13;5075352;28;20075;-68
2022/07/15 07:24:09;;;;;;;5.03;2.70;;;;;;;20.38;100.00;100199.84;5075367;28;20090;-68
2022/07/15 07:26:38;;;;;;;3.42;2.42;;;;;;;20.30;100.00;100214.16;5057093;28;20472;-68
2022/07/15 07:29:06;;;;;;;4.05;2.45;;;;;;;20.16;100.00;100203.84;5074831;28;20482;-68
2022/07/15 07:31:34;;;;;;;4.20;2.80;;;;;;;20.27;100.00;100203.63;5056703;28;20140;-68
2022/07/15 07:34:04;;;;;;;6.03;3.05;;;;;;;20.54;100.00;100199.97;5074731;28;20040;-67
2022/07/15 07:36:32;;;;;;;5.38;2.90;;;;;;;20.52;100.00;100191.16;5074830;28;20071;-68
2022/07/15 07:39:01;;;;;;;6.68;2.83;;;;;;;20.74;98.79;100184.38;5056722;28;20056;-68
2022/07/15 07:41:29;;;;;;;5.90;2.55;;;;;;;20.88;96.18;100195.66;5074310;28;20448;-68
2022/07/15 07:43:57;;;;;;;4.55;2.72;;;;;;;20.81;96.75;100201.69;5074382;28;20053;-68
2022/07/15 07:46:26;;;;;;;4.60;2.78;;;;;;;20.49;100.00;100207.75;5074359;28;20147;-68
2022/07/15 07:48:54;;;;;;;4.45;2.80;;;;;;;20.45;100.00;100203.63;5056580;28;20132;-68
2022/07/15 07:51:44;;;;;;;5.80;2.75;;;;;;;20.50;99.93;100217.56;5056690;28;20053;-68
2022/07/15 07:54:13;;;;;;;5.85;3.08;;;;;;;20.57;98.70;100207.81;5056320;28;20140;-68
2022/07/15 07:56:42;;;;;;;8.50;2.97;;;;;;;20.79;97.02;100195.59;5074379;28;20044;-68
2022/07/15 07:59:10;;;;;;;6.18;3.20;;;;;;;21.03;94.08;100199.44;5074425;28;20068;-68
2022/07/15 08:01:39;;;;;;;4.88;3.10;;;;;;;20.69;98.27;100221.09;5074386;28;20051;-68
2022/07/15 08:04:08;;;;;;;4.20;2.60;;;;;;;20.60;99.77;100220.19;5073170;28;20099;-68
2022/07/15 08:06:38;;;;;;;5.50;2.78;;;;;;;20.54;100.00;100220.81;5055965;28;20048;-68
2022/07/15 08:09:08;;;;;;;5.78;2.97;;;;;;;20.66;98.09;100200.59;5073956;28;20040;-68
2022/07/15 08:11:36;;;;;;;5.28;2.70;;;;;;;20.58;98.74;100206.78;5074178;28;20051;-68
2022/07/15 08:14:04;;;;;;;7.57;3.15;;;;;;;20.76;97.01;100176.94;5074151;28;20068;-68
2022/07/15 08:16:33;;;;;;;7.07;3.10;;;;;;;20.91;95.95;100196.16;5073816;28;20106;-68
2022/07/15 08:19:02;;;;;;;3.92;2.67;;;;;;;20.81;97.30;100196.28;5073939;28;20048;-67
2022/07/15 08:21:31;;;;;;;5.03;3.30;;;;;;;20.95;97.86;100205.69;5072993;28;20124;-68
2022/07/15 08:23:59;;;;;;;5.82;3.10;;;;;;;20.97;97.79;100200.13;5056092;28;20106;-68
2022/07/15 08:26:29;;;;;;;5.20;3.05;;;;;;;20.90;98.46;100213.44;5073634;28;20054;-68
2022/07/15 08:28:57;;;;;;;5.20;3.08;;;;;;;20.93;99.12;100205.00;5073799;28;20071;-68
2022/07/15 08:31:33;;;;;;;7.32;2.83;;;;;;;20.89;99.17;100214.47;5073550;28;20036;-68
2022/07/15 08:34:01;;;;;;;5.57;3.25;;;;;;;20.81;100.00;100211.69;5073470;28;20489;-69
2022/07/15 08:36:30;;;;;;;7.05;3.55;;;;;;;21.02;99.70;100198.59;5073478;28;20064;-68
2022/07/15 08:38:58;;;;;;;6.82;3.20;;;;;;;21.31;96.28;100208.28;5073683;28;20082;-68
2022/07/15 08:41:26;;;;;;;5.53;3.03;;;;;;;21.27;96.23;100212.34;5073221;28;20048;-68
2022/07/15 08:43:56;;;;;;;5.55;2.92;;;;;;;21.30;94.42;100218.28;5073610;28;20043;-68
2022/07/15 08:46:26;;;;;;;4.63;2.95;;;;;;;21.29;94.49;100222.00;5055287;28;20072;-69
2022/07/15 08:48:59;;;;;;;6.80;3.28;;;;;;;21.45;93.01;100213.09;5073485;28;20105;-68
2022/07/15 08:51:29;;;;;;;;;;;;;;;21.33;94.12;100225.28;5073532;28;20044;-68
2022/07/15 08:53:57;;;;;;;6.13;3.10;;;;;;;21.25;96.06;100225.19;5055672;28;19921;-69
2022/07/15 08:56:26;;;;;;;4.55;3.25;;;;;;;21.24;99.32;100224.34;5073110;28;20451;-68
2022/07/15 08:58:56;;;;;;;4.75;3.20;;;;;;;21.12;99.34;100220.19;5073223;28;20436;-68
2022/07/15 09:01:27;;;;;;;7.75;3.40;;;;;;;21.04;100.00;100223.72;5073198;28;20047;-68
2022/07/15 09:03:56;;;;;;;5.40;3.60;;;;;;;20.98;100.00;100239.78;5073366;28;20040;-68
2022/07/15 09:06:33;;;;;;;5.68;3.30;;;;;;;20.98;100.00;100251.47;5073198;28;20075;-68
2022/07/15 09:09:23;;;;;;;6.35;3.72;;;;;;;21.05;100.00;100241.69;5073315;28;20037;-67
2022/07/15 09:12:11;;;;;;;6.10;3.28;;;;;;;21.07;100.00;100245.09;5073477;28;20098;-67
2022/07/15 09:14:45;;;;;;;5.68;3.30;;;;;;;21.43;99.36;100223.28;5073188;28;20040;-68
2022/07/15 09:17:23;;;;;;;5.32;3.70;;;;;;;21.36;99.04;100235.78;5073219;28;20106;-68
2022/07/15 09:20:06;;;;;;;6.95;3.78;;;;;;;21.47;100.00;100251.78;5072996;28;20045;-68
2022/07/15 09:22:49;;;;;;;8.80;4.03;;;;;;;21.63;98.40;100272.72;5073068;28;20041;-68
2022/07/15 09:25:18;;;;;;;8.02;3.90;;;;;;;21.36;97.72;100277.34;5072882;28;20048;-81
2022/07/15 09:27:47;;;;;;;7.68;4.40;;;;;;;21.37;97.53;100253.75;5055080;28;20080;-68
2022/07/15 09:36:03;;;;;;;8.70;4.47;;;;;;;21.59;95.18;100253.19;5073058;28;20036;-68
2022/07/15 09:38:34;;;;;;;7.03;4.15;;;;;;;21.49;96.46;100244.31;5072753;28;20409;-69
2022/07/15 09:41:03;;;;;;;8.45;4.07;;;;;;;21.57;95.02;100241.66;5072829;28;20123;-68
2022/07/15 09:43:43;;;;;;;10.20;4.32;;;;;;;21.57;94.64;100248.94;5054522;28;20052;-68
2022/07/15 09:46:14;;;;;;;6.18;4.32;;;;;;;21.81;94.11;100256.31;5072900;28;20128;-68
2022/07/15 09:48:45;;;;;;;9.05;4.13;;;;;;;22.15;86.74;100262.56;5072653;28;20382;-68
2022/07/15 09:51:13;;;;;;;7.97;3.83;;;;;;;22.07;87.45;100259.81;5073015;28;20120;-68
2022/07/15 09:53:42;;;;;;;8.00;4.47;;;;;;;22.50;83.55;100260.59;5072349;28;20041;-68
2022/07/15 09:56:15;;;;;;;9.88;4.80;;;;;;;22.95;80.25;100260.06;5072632;28;20422;-68
2022/07/15 09:58:44;;;;;;;12.63;4.32;;;;;;;23.16;77.50;100261.41;5072459;28;20052;-67
2022/07/15 10:01:14;;;;;;;8.55;4.18;;;;;;;23.33;76.03;100257.63;5072667;28;20065;-67
2022/07/15 10:03:42;;;;;;;6.55;3.90;;;;;;;23.35;74.12;100267.28;5054387;28;20045;-68
2022/07/15 10:06:14;;;;;;;10.45;3.90;;;;;;;23.27;73.48;100275.50;5072601;28;20199;-68
2022/07/15 10:08:46;;;;;;;;;;;;;;;23.14;73.21;100265.13;5072794;28;20041;-68
2022/07/15 10:11:15;;;;;;;7.45;4.00;;;;;;;23.03;73.57;100256.50;5072747;28;20353;-67
2022/07/15 10:14:27;;;;;;;7.95;3.65;;;;;;;22.99;72.74;100236.13;5072355;28;20060;-68
2022/07/15 10:17:12;;;;;;;6.80;4.00;;;;;;;23.08;69.70;100191.56;5054462;28;20076;-67
2022/07/15 10:20:08;;;;;;;6.00;3.33;;;;;;;23.06;66.99;100159.06;5072092;28;20044;-67
2022/07/15 10:22:48;;;;;;;6.63;3.38;;;;;;;23.07;64.94;100155.34;5054999;28;20083;-68
2022/07/15 10:25:26;;;;;;;4.65;3.03;;;;;;;23.19;64.42;100171.28;5054670;28;20079;-67
2022/07/15 10:28:06;;;;;;;4.90;3.28;;;;;;;23.04;63.68;100192.91;5072420;28;20071;-67
2022/07/15 10:30:36;;;;;;;7.40;3.22;;;;;;;23.01;65.46;100198.72;5071965;28;20041;-68
2022/07/15 10:33:13;;;;;;;7.95;3.20;;;;;;;23.23;65.31;100191.66;5054677;28;20052;-68
2022/07/15 10:35:45;;;;;;;5.53;3.22;;;;;;;23.17;63.19;100186.94;5072174;28;20051;-68
2022/07/15 10:38:29;;;;;;;6.18;3.50;;;;;;;23.26;63.95;100174.97;5072695;28;20394;-68
2022/07/15 10:41:09;;;;;;;7.32;3.00;;;;;;;23.12;63.15;100169.25;5072087;28;20064;-68
2022/07/15 10:43:55;;;;;;;7.10;3.72;;;;;;;23.11;63.81;100177.59;5072988;28;20044;-68
2022/07/15 10:46:27;;;;;;;9.43;3.65;;;;;;;23.08;64.06;100175.22;5075675;28;20040;-68
2022/07/15 10:49:30;;;;;;;7.28;3.67;;;;;;;23.35;63.49;100180.22;5075742;28;20071;-67
2022/07/15 10:52:14;;;;;;;6.47;3.50;;;;;;;23.62;60.54;100186.25;5072225;28;20139;-67
2022/07/15 10:54:48;;;;;;;7.22;3.00;;;;;;;24.10;53.47;100179.66;5055720;28;20052;-68
2022/07/15 10:57:19;;;;;;;5.30;3.00;;;;;;;24.43;49.32;100185.75;5075636;28;20045;-67
2022/07/15 10:59:53;;;;;;;4.20;2.28;;;;;;;24.57;42.69;100192.25;5057631;28;20053;-68
2022/07/15 11:02:24;;;;;;;6.43;2.38;;;;;;;24.64;41.53;100187.75;5075690;28;20048;-67
2022/07/15 11:05:21;;;;;;;4.60;2.20;;;;;;;24.61;40.12;100181.81;5075582;28;20090;-67
2022/07/15 11:07:49;;;;;;;3.65;2.13;;;;;;;24.53;38.21;100185.50;5075258;28;20037;-67
2022/07/15 11:10:22;;;;;;;4.10;2.30;;;;;;;24.64;37.94;100193.22;5073744;28;20059;-68
2022/07/15 11:13:05;;;;;;;5.63;2.00;;;;;;;24.76;37.76;100186.28;5057787;28;20084;-67
2022/07/15 11:15:34;;;;;;;3.63;1.80;;;;;;;24.76;36.48;100182.69;5075025;28;20052;-68
2022/07/15 11:18:03;;;;;;;3.40;2.20;;;;;;;24.81;35.68;100177.56;5056858;28;20056;-68
2022/07/15 11:20:39;;;;;;;5.38;2.10;;;;;;;24.83;34.83;100179.03;5074974;28;20037;-68
2022/07/15 11:23:08;;;;;;;5.20;1.98;;;;;;;24.77;33.71;100187.13;5057250;28;20052;-68
2022/07/15 11:25:39;;;;;;;4.65;2.40;;;;;;;24.93;32.49;100173.31;5074926;28;20040;-68
2022/07/15 11:28:10;;;;;;;5.93;2.58;;;;;;;25.16;31.49;100183.31;5075130;28;20066;-66
2022/07/15 11:30:41;;;;;;;5.35;2.35;;;;;;;25.18;31.03;100175.78;5074616;28;20048;-67
2022/07/15 11:33:12;;;;;;;9.32;2.50;;;;;;;25.20;31.15;100174.59;5074609;28;20049;-67
2022/07/15 11:35:47;;;;;;;4.78;2.30;;;;;;;25.15;31.99;100176.19;5074582;28;20051;-68
2022/07/15 11:38:15;;;;;;;5.60;2.40;;;;;;;25.30;32.38;100175.16;5057010;28;20078;-68
2022/07/15 11:46:18;;;;;;;5.82;2.40;;;;;;;25.81;32.43;100160.66;5074682;28;20115;-68
2022/07/15 11:48:48;;;;;;;6.30;2.25;;;;;;;25.65;32.62;100153.50;5056393;28;20060;-66
2022/07/15 11:51:25;;;;;;;6.47;2.30;;;;;;;25.69;32.71;100166.59;5056711;28;20090;-68
2022/07/15 11:53:54;;;;;;;8.02;2.25;;;;;;;25.86;32.70;100171.84;5074179;28;20090;-68
2022/07/15 11:56:23;;;;;;;5.07;2.25;;;;;;;25.93;31.58;100172.78;5074242;28;20068;-68
2022/07/15 11:58:53;;;;;;;4.18;2.33;;;;;;;25.87;31.66;100157.16;5074264;28;20053;-68